Time;durP1;ratioP1;P1;durP2;ratioP2;P2;SDS_P1;SDS_P2;PMS_P1;PMS_P2;Temp;Humidity;BMP_temperature;BMP_pressure;BME280_temperature;BME280_humidity;BME280_pressure;Samples;Min_cycle;Max_cycle;Signal;HPM_P1;HPM_P2
2022/10/19 00:01:01;;;;;;;11.03;5.67;;;8.30;99.90;;;;;;5053987;28;20250;-60
2022/10/19 00:03:27;;;;;;;15.30;5.50;;;8.30;99.90;;;;;;5054601;28;20271;-60
2022/10/19 00:05:54;;;;;;;15.73;6.73;;;8.30;99.90;;;;;;5053191;28;20220;-61
2022/10/19 00:08:21;;;;;;;15.30;5.67;;;8.30;99.90;;;;;;5053951;28;20212;-59
2022/10/19 00:10:48;;;;;;;17.47;5.63;;;8.30;99.90;;;;;;5053687;28;20232;-60
2022/10/19 00:13:14;;;;;;;17.50;5.77;;;8.20;99.90;;;;;;5053688;28;20255;-60
2022/10/19 00:15:43;;;;;;;18.07;5.60;;;8.20;99.90;;;;;;5053851;28;20250;-60
2022/10/19 00:18:10;;;;;;;9.40;5.40;;;8.20;99.90;;;;;;5053808;28;20205;-60
2022/10/19 00:20:37;;;;;;;16.23;5.53;;;8.20;99.90;;;;;;5053890;28;20229;-60
2022/10/19 00:23:04;;;;;;;10.97;5.77;;;8.10;99.90;;;;;;5053333;28;20211;-60
2022/10/19 00:25:31;;;;;;;15.67;5.47;;;8.10;99.90;;;;;;5053622;28;20242;-60
2022/10/19 00:27:58;;;;;;;23.53;6.63;;;8.10;99.90;;;;;;5053814;28;20709;-60
2022/10/19 00:30:24;;;;;;;10.40;5.47;;;8.10;99.90;;;;;;5053115;28;20280;-61
2022/10/19 00:32:52;;;;;;;17.90;5.47;;;8.10;99.90;;;;;;5053188;28;20212;-60
2022/10/19 00:35:19;;;;;;;11.27;5.00;;;8.10;99.90;;;;;;5053151;28;20220;-60
2022/10/19 00:37:45;;;;;;;12.07;5.67;;;8.00;99.90;;;;;;5056152;28;20225;-60
2022/10/19 00:40:13;;;;;;;12.37;5.00;;;8.00;99.90;;;;;;5056553;28;20224;-61
2022/10/19 00:42:39;;;;;;;8.80;4.90;;;8.00;99.90;;;;;;5056513;28;20258;-60
2022/10/19 00:45:14;;;;;;;7.83;5.20;;;8.00;99.90;;;;;;5056900;28;20226;-60
2022/10/19 00:47:42;;;;;;;20.57;5.63;;;8.00;99.90;;;;;;5056812;28;20241;-61
2022/10/19 00:50:13;;;;;;;13.23;5.43;;;8.10;99.90;;;;;;5056806;28;20236;-60
2022/10/19 00:52:40;;;;;;;9.03;4.67;;;8.00;99.90;;;;;;5056254;28;20206;-60
2022/10/19 00:55:08;;;;;;;12.23;5.10;;;8.00;99.90;;;;;;5056209;28;20228;-60
2022/10/19 00:57:35;;;;;;;13.10;4.97;;;8.10;99.90;;;;;;5056109;28;20250;-60
2022/10/19 01:00:04;;;;;;;15.73;5.20;;;8.00;99.90;;;;;;5056121;28;20228;-60
2022/10/19 01:02:31;;;;;;;16.63;4.67;;;8.00;99.90;;;;;;5056341;28;20214;-58
2022/10/19 01:04:59;;;;;;;12.10;4.73;;;7.90;99.90;;;;;;5055809;28;20206;-60
2022/10/19 01:07:27;;;;;;;10.23;4.60;;;7.90;99.90;;;;;;5055602;28;20276;-60
2022/10/19 01:09:54;;;;;;;15.27;4.57;;;7.90;99.90;;;;;;5055758;28;20314;-60
2022/10/19 01:12:39;;;;;;;14.43;5.10;;;7.80;99.90;;;;;;5055833;28;20678;-59
2022/10/19 01:15:17;;;;;;;17.60;5.10;;;7.80;99.90;;;;;;5055113;28;20232;-60
2022/10/19 01:17:53;;;;;;;12.37;5.20;;;7.80;99.90;;;;;;5054961;28;20196;-58
2022/10/19 01:20:42;;;;;;;13.00;4.70;;;7.70;99.90;;;;;;5054845;28;20232;-60
2022/10/19 01:23:39;;;;;;;11.23;4.50;;;7.70;99.90;;;;;;5055322;28;20302;-59
2022/10/19 01:26:21;;;;;;;15.37;5.03;;;7.70;99.90;;;;;;5055317;28;20207;-60
2022/10/19 01:28:57;;;;;;;13.53;4.57;;;7.60;99.90;;;;;;5055439;28;20220;-58
2022/10/19 01:31:31;;;;;;;11.43;5.07;;;7.60;99.90;;;;;;5055690;28;20237;-58
2022/10/19 01:34:04;;;;;;;14.43;5.27;;;7.60;99.90;;;;;;5054941;28;20208;-59
2022/10/19 01:36:40;;;;;;;13.17;4.77;;;7.60;99.90;;;;;;5054537;28;20832;-60
2022/10/19 01:39:12;;;;;;;13.80;5.47;;;7.50;99.90;;;;;;5054054;28;20234;-60
2022/10/19 01:41:45;;;;;;;11.10;5.80;;;7.50;99.90;;;;;;5054153;28;20210;-60
2022/10/19 01:44:16;;;;;;;11.50;5.57;;;7.50;99.90;;;;;;5054343;28;20203;-60
2022/10/19 01:46:50;;;;;;;11.03;5.07;;;7.40;99.90;;;;;;5053666;28;20677;-59
2022/10/19 01:49:20;;;;;;;9.67;5.43;;;7.40;99.90;;;;;;5053280;28;20263;-60
2022/10/19 01:51:51;;;;;;;12.97;5.63;;;7.40;99.90;;;;;;5054388;28;20227;-60
2022/10/19 01:54:20;;;;;;;8.77;4.83;;;7.40;99.90;;;;;;5054058;28;20194;-60
2022/10/19 01:56:49;;;;;;;13.57;5.33;;;7.40;99.90;;;;;;5053596;28;20218;-60
2022/10/19 01:59:19;;;;;;;12.83;4.77;;;7.40;99.90;;;;;;5053947;28;20270;-60
2022/10/19 02:01:50;;;;;;;10.80;5.47;;;7.30;99.90;;;;;;5053754;28;20214;-60
2022/10/19 02:04:20;;;;;;;14.13;5.73;;;7.30;99.90;;;;;;5053988;28;20267;-60
2022/10/19 02:06:47;;;;;;;14.33;5.67;;;7.40;99.90;;;;;;5053993;28;20218;-59
2022/10/19 02:09:17;;;;;;;13.00;5.40;;;7.40;99.90;;;;;;5053785;28;20275;-60
2022/10/19 02:11:45;;;;;;;12.37;5.63;;;7.40;99.90;;;;;;5053955;28;20207;-60
2022/10/19 02:14:15;;;;;;;10.03;5.63;;;7.40;99.90;;;;;;5053770;28;20257;-60
2022/10/19 02:16:49;;;;;;;19.87;5.97;;;7.40;99.90;;;;;;5053650;28;20267;-60
2022/10/19 02:19:17;;;;;;;17.73;6.03;;;7.40;99.90;;;;;;5053793;28;20309;-60
2022/10/19 02:21:44;;;;;;;9.67;5.73;;;7.40;99.90;;;;;;5053992;28;20272;-59
2022/10/19 02:24:11;;;;;;;17.83;6.37;;;7.40;99.90;;;;;;5053602;28;20203;-60
2022/10/19 02:26:39;;;;;;;13.57;6.40;;;7.40;99.90;;;;;;5053481;28;20208;-58
2022/10/19 02:29:06;;;;;;;13.50;6.60;;;7.40;99.90;;;;;;5053228;28;20296;-60
2022/10/19 02:31:33;;;;;;;13.23;6.10;;;7.30;99.90;;;;;;5053350;28;20702;-60
2022/10/19 02:34:01;;;;;;;10.67;5.77;;;7.30;99.90;;;;;;5053230;28;20211;-60
2022/10/19 02:36:28;;;;;;;11.80;6.47;;;7.30;99.90;;;;;;5053304;28;20594;-60
2022/10/19 02:38:55;;;;;;;13.23;6.20;;;7.30;99.90;;;;;;5053419;28;20207;-59
2022/10/19 02:41:25;;;;;;;15.80;6.20;;;7.30;99.90;;;;;;5053303;28;20215;-60
2022/10/19 02:43:58;;;;;;;15.97;6.00;;;7.20;99.90;;;;;;5053322;28;20265;-60
2022/10/19 02:46:32;;;;;;;14.83;6.50;;;7.20;99.90;;;;;;5053083;28;20355;-60
2022/10/19 02:48:59;;;;;;;16.67;5.67;;;7.10;99.90;;;;;;5052847;28;20205;-60
2022/10/19 02:51:35;;;;;;;15.63;6.47;;;7.00;99.90;;;;;;5053092;28;20214;-60
2022/10/19 02:54:03;;;;;;;11.13;6.20;;;7.00;99.90;;;;;;5052648;28;20616;-60
2022/10/19 02:56:30;;;;;;;18.47;6.50;;;7.00;99.90;;;;;;5052671;28;20229;-60
2022/10/19 02:58:57;;;;;;;10.83;5.33;;;7.00;99.90;;;;;;5052115;28;20211;-60
2022/10/19 03:01:23;;;;;;;16.67;6.10;;;7.00;99.90;;;;;;5052275;28;20701;-58
2022/10/19 03:03:50;;;;;;;12.93;6.37;;;7.00;99.90;;;;;;5052456;28;20673;-60
2022/10/19 03:06:17;;;;;;;11.40;6.17;;;6.90;99.90;;;;;;5052414;28;20259;-60
2022/10/19 03:08:45;;;;;;;13.53;6.23;;;6.90;99.90;;;;;;5052558;28;20213;-60
2022/10/19 03:11:12;;;;;;;13.73;6.47;;;6.90;99.90;;;;;;5052784;28;20206;-60
2022/10/19 03:13:39;;;;;;;10.90;5.63;;;6.80;99.90;;;;;;5052625;28;20206;-60
2022/10/19 03:16:07;;;;;;;14.63;6.33;;;6.80;99.90;;;;;;5052268;28;20282;-60
2022/10/19 03:18:33;;;;;;;14.50;6.27;;;6.70;99.90;;;;;;5052293;28;20270;-60
2022/10/19 03:21:06;;;;;;;12.70;6.70;;;6.70;99.90;;;;;;5052252;28;20280;-60
2022/10/19 03:23:33;;;;;;;10.90;6.53;;;6.70;99.90;;;;;;5052663;28;20628;-60
2022/10/19 03:26:01;;;;;;;12.30;6.93;;;6.70;99.90;;;;;;5052180;28;20273;-60
2022/10/19 03:28:29;;;;;;;18.33;7.30;;;6.70;99.90;;;;;;5052150;28;20206;-60
2022/10/19 03:30:56;;;;;;;11.40;7.47;;;6.70;99.90;;;;;;5052009;28;20268;-60
2022/10/19 03:33:23;;;;;;;13.60;7.43;;;6.70;99.90;;;;;;5051849;28;20214;-60
2022/10/19 03:35:50;;;;;;;14.37;6.77;;;6.70;99.90;;;;;;5052650;28;20230;-60
2022/10/19 03:38:17;;;;;;;12.20;7.27;;;6.70;99.90;;;;;;5052218;28;20323;-60
2022/10/19 03:40:44;;;;;;;19.90;7.57;;;6.70;99.90;;;;;;5052340;28;20229;-60
2022/10/19 03:43:12;;;;;;;11.97;7.47;;;6.70;99.90;;;;;;5052015;28;20672;-60
2022/10/19 03:45:38;;;;;;;16.00;7.27;;;6.70;99.90;;;;;;5052190;28;20559;-60
2022/10/19 03:48:05;;;;;;;10.67;6.23;;;6.60;99.90;;;;;;5051716;28;20209;-60
2022/10/19 03:50:32;;;;;;;11.60;7.07;;;6.60;99.90;;;;;;5051718;28;20696;-60
2022/10/19 03:52:59;;;;;;;12.00;6.53;;;6.60;99.90;;;;;;5052418;28;20205;-60
2022/10/19 03:55:26;;;;;;;11.27;6.33;;;6.60;99.90;;;;;;5051943;28;20226;-60
2022/10/19 03:57:52;;;;;;;14.77;7.17;;;6.60;99.90;;;;;;5051849;28;20209;-60
2022/10/19 04:00:20;;;;;;;10.27;6.80;;;6.60;99.90;;;;;;5051954;28;20226;-59
2022/10/19 04:02:47;;;;;;;14.27;7.00;;;6.60;99.90;;;;;;5051679;28;20213;-60
2022/10/19 04:05:14;;;;;;;10.17;7.23;;;6.60;99.90;;;;;;5052020;28;20561;-62
2022/10/19 04:07:40;;;;;;;14.33;7.10;;;6.60;99.90;;;;;;5051425;28;20677;-60
2022/10/19 04:10:08;;;;;;;11.60;7.07;;;6.50;99.90;;;;;;5051535;28;20264;-60
2022/10/19 04:12:34;;;;;;;18.70;8.17;;;6.50;99.90;;;;;;5055951;28;20216;-60
2022/10/19 04:15:01;;;;;;;12.30;7.17;;;6.50;99.90;;;;;;5056041;28;20210;-60
2022/10/19 04:17:29;;;;;;;16.57;7.17;;;6.40;99.90;;;;;;5056126;28;20630;-60
2022/10/19 04:19:56;;;;;;;13.77;7.03;;;6.40;99.90;;;;;;5055722;28;20774;-60
2022/10/19 04:22:22;;;;;;;17.07;7.63;;;6.40;99.90;;;;;;5056518;28;20251;-60
2022/10/19 04:24:49;;;;;;;20.00;8.80;;;6.40;99.90;;;;;;5055775;28;20259;-60
2022/10/19 04:27:16;;;;;;;15.60;9.07;;;6.30;99.90;;;;;;5055703;28;20209;-60
2022/10/19 04:29:42;;;;;;;20.83;9.53;;;6.30;99.90;;;;;;5055295;28;20229;-59
2022/10/19 04:32:09;;;;;;;127.23;13.20;;;6.20;99.90;;;;;;5055528;28;20201;-60
2022/10/19 04:34:37;;;;;;;37.57;9.83;;;6.20;99.90;;;;;;5055622;28;20213;-59
2022/10/19 04:37:04;;;;;;;21.67;9.57;;;6.20;99.90;;;;;;5054033;28;20708;-60
2022/10/19 04:39:30;;;;;;;31.13;10.13;;;6.10;99.90;;;;;;5055361;28;20225;-60
2022/10/19 04:41:57;;;;;;;13.77;9.57;;;6.10;99.90;;;;;;5055102;28;20209;-60
2022/10/19 04:44:24;;;;;;;24.63;8.90;;;6.10;99.90;;;;;;5048757;28;20251;-60
2022/10/19 04:46:50;;;;;;;22.43;9.83;;;6.20;99.90;;;;;;5052823;28;20259;-61
2022/10/19 04:49:18;;;;;;;14.93;9.33;;;6.20;99.90;;;;;;5054024;28;20230;-61
2022/10/19 04:51:46;;;;;;;18.23;9.57;;;6.20;99.90;;;;;;5054963;28;20213;-61
2022/10/19 04:54:13;;;;;;;45.30;10.73;;;6.20;99.90;;;;;;5054045;28;20255;-60
2022/10/19 04:56:39;;;;;;;32.10;10.80;;;6.20;99.90;;;;;;5052803;28;20302;-61
2022/10/19 04:59:06;;;;;;;67.53;13.13;;;6.30;99.90;;;;;;5054472;28;20237;-61
2022/10/19 05:01:33;;;;;;;104.50;33.93;;;6.30;99.90;;;;;;5054257;28;20205;-61
2022/10/19 05:04:01;;;;;;;44.17;12.43;;;6.30;99.90;;;;;;5054026;28;20201;-61
2022/10/19 05:06:29;;;;;;;36.73;11.97;;;6.30;99.90;;;;;;5052480;28;20206;-61
2022/10/19 05:08:57;;;;;;;75.80;14.43;;;6.30;99.90;;;;;;5054385;28;20267;-61
2022/10/19 05:11:24;;;;;;;43.20;12.30;;;6.30;99.90;;;;;;5053827;28;20201;-61
2022/10/19 05:13:51;;;;;;;121.20;16.33;;;6.40;99.90;;;;;;5053027;28;20228;-61
2022/10/19 05:16:19;;;;;;;83.17;14.23;;;6.40;99.90;;;;;;5052848;28;20303;-61
2022/10/19 05:18:49;;;;;;;94.47;14.00;;;6.40;99.90;;;;;;5054153;28;20209;-61
2022/10/19 05:21:17;;;;;;;55.90;12.50;;;6.40;99.90;;;;;;5054287;28;20205;-61
2022/10/19 05:23:44;;;;;;;79.43;12.73;;;6.40;99.90;;;;;;5052344;28;20608;-63
2022/10/19 05:26:16;;;;;;;61.50;12.77;;;6.40;99.90;;;;;;5052117;28;20198;-63
2022/10/19 05:28:43;;;;;;;37.53;12.57;;;6.50;99.90;;;;;;5053923;28;20705;-63
2022/10/19 05:31:14;;;;;;;120.87;14.43;;;6.50;99.90;;;;;;5054584;28;20263;-64
2022/10/19 05:33:42;;;;;;;74.13;12.03;;;6.50;99.90;;;;;;5054464;28;20677;-63
2022/10/19 05:36:14;;;;;;;50.07;10.93;;;6.50;99.90;;;;;;5053503;28;20283;-64
2022/10/19 05:38:41;;;;;;;30.97;10.50;;;6.40;99.90;;;;;;5053950;28;20252;-64
2022/10/19 05:41:07;;;;;;;115.13;13.47;;;6.40;99.90;;;;;;5053954;28;20291;-66
2022/10/19 05:43:35;;;;;;;115.60;13.50;;;6.40;99.90;;;;;;5053593;28;20209;-67
2022/10/19 05:46:06;;;;;;;47.83;10.53;;;6.40;99.90;;;;;;5053556;28;20228;-66
2022/10/19 05:48:37;;;;;;;30.70;10.80;;;6.40;99.90;;;;;;5034017;28;20210;-65
2022/10/19 05:51:06;;;;;;;32.23;11.27;;;6.40;99.90;;;;;;5034257;28;20634;-65
2022/10/19 05:53:33;;;;;;;33.60;11.50;;;6.40;99.90;;;;;;5052691;28;20213;-64
2022/10/19 05:56:00;;;;;;;52.30;12.67;;;6.50;99.90;;;;;;5052955;28;20221;-64
2022/10/19 05:58:27;;;;;;;39.03;12.10;;;6.50;99.90;;;;;;5054095;28;20213;-67
2022/10/19 06:00:57;;;;;;;29.07;11.27;;;6.50;99.90;;;;;;5052049;28;20226;-62
2022/10/19 06:03:24;;;;;;;21.90;11.70;;;6.50;99.90;;;;;;5053684;28;20224;-63
2022/10/19 06:05:52;;;;;;;21.07;11.27;;;6.50;99.90;;;;;;5052962;28;20210;-63
2022/10/19 06:08:20;;;;;;;23.17;11.37;;;6.50;99.90;;;;;;5053221;28;20560;-63
2022/10/19 06:10:48;;;;;;;23.33;11.67;;;6.40;99.90;;;;;;5052834;28;20708;-63
2022/10/19 06:13:16;;;;;;;25.00;11.83;;;6.40;99.90;;;;;;5053468;28;20239;-63
2022/10/19 06:15:42;;;;;;;26.63;10.90;;;6.40;99.90;;;;;;5052954;28;20210;-62
2022/10/19 06:18:12;;;;;;;29.07;11.30;;;6.40;99.90;;;;;;5053275;28;20283;-63
2022/10/19 06:20:42;;;;;;;23.83;11.30;;;6.50;99.90;;;;;;5052769;28;20612;-63
2022/10/19 06:23:09;;;;;;;29.90;11.00;;;6.40;99.90;;;;;;5053421;28;20252;-64
2022/10/19 06:25:36;;;;;;;19.53;10.33;;;6.50;99.90;;;;;;5053607;28;20202;-64
2022/10/19 06:28:04;;;;;;;23.83;11.43;;;6.50;99.90;;;;;;5052619;28;20585;-63
2022/10/19 06:30:31;;;;;;;20.80;11.10;;;6.40;99.90;;;;;;5052817;28;20738;-63
2022/10/19 06:32:59;;;;;;;33.00;11.30;;;6.40;99.90;;;;;;5052538;28;20267;-63
2022/10/19 06:35:27;;;;;;;21.47;12.10;;;6.30;99.90;;;;;;5052331;28;20224;-64
2022/10/19 06:37:56;;;;;;;18.50;10.83;;;6.30;99.90;;;;;;5052794;28;20225;-64
2022/10/19 06:40:22;;;;;;;24.67;10.83;;;6.30;99.90;;;;;;5052913;28;20328;-65
2022/10/19 06:42:49;;;;;;;25.40;11.63;;;6.20;99.90;;;;;;5052379;28;20210;-64
2022/10/19 06:45:16;;;;;;;26.47;12.23;;;6.30;99.90;;;;;;5053084;28;20209;-63
2022/10/19 06:47:43;;;;;;;21.93;11.73;;;6.30;99.90;;;;;;5051869;28;20218;-63
2022/10/19 06:50:10;;;;;;;24.80;12.07;;;6.40;99.90;;;;;;5052576;28;20272;-63
2022/10/19 06:52:39;;;;;;;24.27;12.30;;;6.40;99.90;;;;;;5052713;28;20275;-63
2022/10/19 06:55:07;;;;;;;24.53;11.97;;;6.40;99.90;;;;;;5052450;28;20208;-63
2022/10/19 06:57:33;;;;;;;26.90;11.77;;;6.50;99.90;;;;;;5052474;28;20250;-63
2022/10/19 07:00:00;;;;;;;22.57;12.17;;;6.50;99.90;;;;;;5052027;28;20237;-64
2022/10/19 07:02:27;;;;;;;28.00;12.67;;;6.60;99.90;;;;;;5051124;28;20198;-65
2022/10/19 07:04:53;;;;;;;24.73;11.53;;;6.60;99.90;;;;;;5052150;28;20205;-65
2022/10/19 07:07:20;;;;;;;25.40;12.60;;;6.60;99.90;;;;;;5052009;28;20206;-64
2022/10/19 07:09:49;;;;;;;30.80;12.30;;;6.60;99.90;;;;;;5051666;28;20652;-64
2022/10/19 07:12:16;;;;;;;19.70;11.20;;;6.60;99.90;;;;;;5051957;28;20209;-63
2022/10/19 07:14:42;;;;;;;28.93;12.10;;;6.70;99.90;;;;;;5051999;28;20206;-63
2022/10/19 07:17:11;;;;;;;34.30;12.43;;;6.70;99.90;;;;;;5052020;28;20650;-61
2022/10/19 07:19:38;;;;;;;29.13;12.13;;;6.80;99.90;;;;;;5051662;28;20225;-62
2022/10/19 07:22:04;;;;;;;32.50;12.73;;;6.80;99.90;;;;;;5051921;28;20275;-62
2022/10/19 07:24:31;;;;;;;38.07;13.47;;;6.80;99.90;;;;;;5051970;28;20214;-62
2022/10/19 07:26:59;;;;;;;31.50;14.53;;;6.80;99.90;;;;;;5051306;28;20283;-62
2022/10/19 07:29:26;;;;;;;29.17;14.13;;;6.90;99.90;;;;;;5051882;28;20669;-61
2022/10/19 07:31:52;;;;;;;37.37;14.80;;;7.00;99.90;;;;;;5051191;28;20240;-65
2022/10/19 07:34:19;;;;;;;44.47;15.50;;;7.10;99.90;;;;;;5051883;28;20363;-65
2022/10/19 07:36:47;;;;;;;78.07;16.23;;;7.10;99.90;;;;;;5051254;28;20291;-64
2022/10/19 07:39:15;;;;;;;68.80;16.37;;;7.10;99.90;;;;;;5051690;28;20312;-63
2022/10/19 07:41:42;;;;;;;89.73;18.10;;;7.10;99.90;;;;;;5051612;28;20297;-64
2022/10/19 07:44:10;;;;;;;53.40;17.93;;;7.20;99.90;;;;;;5051656;28;20217;-64
2022/10/19 07:46:38;;;;;;;48.07;19.77;;;7.20;99.90;;;;;;5050208;28;20255;-64
2022/10/19 07:49:08;;;;;;;43.87;19.03;;;7.30;99.90;;;;;;5051368;28;20213;-62
2022/10/19 07:51:35;;;;;;;48.70;19.77;;;7.40;99.90;;;;;;5050843;28;20206;-62
2022/10/19 07:54:02;;;;;;;52.30;20.03;;;7.50;99.90;;;;;;5051208;28;20588;-63
2022/10/19 07:56:30;;;;;;;51.83;21.40;;;7.60;99.90;;;;;;5051001;28;20232;-62
2022/10/19 07:58:58;;;;;;;48.50;20.87;;;7.60;99.90;;;;;;5050987;28;20209;-63
2022/10/19 08:01:27;;;;;;;45.80;20.00;;;7.70;99.90;;;;;;5048119;28;20738;-64
2022/10/19 08:03:55;;;;;;;44.53;19.87;;;7.80;99.90;;;;;;5030974;28;20252;-61
2022/10/19 08:06:23;;;;;;;55.67;21.60;;;7.90;99.90;;;;;;5038326;28;20201;-64
2022/10/19 08:08:50;;;;;;;42.13;18.97;;;8.00;99.90;;;;;;5051013;28;20628;-61
2022/10/19 08:11:19;;;;;;;41.80;18.33;;;8.00;99.90;;;;;;5051568;28;20203;-62
2022/10/19 08:13:46;;;;;;;39.30;19.90;;;8.00;99.90;;;;;;5051025;28;20206;-62
2022/10/19 08:16:25;;;;;;;50.80;20.67;;;8.20;99.90;;;;;;5050986;28;20287;-62
2022/10/19 08:18:56;;;;;;;48.50;20.37;;;8.30;99.90;;;;;;5050441;28;20288;-61
2022/10/19 08:21:23;;;;;;;45.17;20.57;;;8.40;99.90;;;;;;5051630;28;20216;-64
2022/10/19 08:23:50;;;;;;;42.27;20.40;;;8.50;99.90;;;;;;5051360;28;20213;-62
2022/10/19 08:26:17;;;;;;;54.07;21.03;;;8.60;99.90;;;;;;5050913;28;20261;-61
2022/10/19 08:28:43;;;;;;;36.10;18.30;;;8.70;99.90;;;;;;5050965;28;20212;-65
2022/10/19 08:31:12;;;;;;;40.80;19.30;;;8.80;99.90;;;;;;5050756;28;20679;-65
2022/10/19 08:33:38;;;;;;;43.00;18.90;;;8.90;99.90;;;;;;5051149;28;20213;-63
2022/10/19 08:36:08;;;;;;;43.27;20.23;;;9.00;99.90;;;;;;5050451;28;20684;-63
2022/10/19 08:38:36;;;;;;;41.53;19.20;;;9.10;99.90;;;;;;5051145;28;20210;-61
2022/10/19 08:41:13;;;;;;;44.07;19.90;;;9.20;99.90;;;;;;5050796;28;20279;-61
2022/10/19 08:43:53;;;;;;;41.20;18.80;;;9.20;99.90;;;;;;5051111;28;20213;-64
2022/10/19 08:46:24;;;;;;;41.17;20.10;;;9.40;99.90;;;;;;5050432;28;20246;-65
2022/10/19 08:48:52;;;;;;;41.30;18.03;;;9.50;99.90;;;;;;5051079;28;20209;-64
2022/10/19 08:51:20;;;;;;;35.67;15.93;;;9.60;99.90;;;;;;5050815;28;20592;-64
2022/10/19 08:53:54;;;;;;;41.73;17.07;;;9.60;99.90;;;;;;5051013;28;20251;-63
2022/10/19 08:56:27;;;;;;;38.50;15.67;;;9.70;99.90;;;;;;5047663;28;20257;-63
2022/10/19 08:59:06;;;;;;;36.10;16.10;;;9.90;99.90;;;;;;5055387;28;20619;-62
2022/10/19 09:01:42;;;;;;;37.50;16.10;;;9.90;99.90;;;;;;5055084;28;20209;-64
2022/10/19 09:04:17;;;;;;;39.27;17.27;;;10.10;99.90;;;;;;5055124;28;20263;-64
2022/10/19 09:06:55;;;;;;;41.67;17.60;;;10.10;99.90;;;;;;5053987;28;20205;-63
2022/10/19 09:09:23;;;;;;;34.43;16.17;;;10.30;99.90;;;;;;5054819;28;20275;-64
2022/10/19 09:11:55;;;;;;;36.20;15.87;;;10.30;99.90;;;;;;5054673;28;20673;-64
2022/10/19 09:14:30;;;;;;;31.93;14.00;;;10.50;99.90;;;;;;5054538;28;20246;-64
2022/10/19 09:17:01;;;;;;;33.27;14.50;;;10.60;99.90;;;;;;5054001;28;20284;-64
2022/10/19 09:19:30;;;;;;;28.20;11.63;;;10.60;99.90;;;;;;5053680;28;20638;-64
2022/10/19 09:22:01;;;;;;;32.70;10.57;;;10.80;99.90;;;;;;5054339;28;20593;-64
2022/10/19 09:24:35;;;;;;;26.67;10.17;;;10.80;99.90;;;;;;5052870;28;20194;-61
2022/10/19 09:27:02;;;;;;;18.30;8.37;;;10.90;99.90;;;;;;5053816;28;20211;-66
2022/10/19 09:29:36;;;;;;;23.63;9.23;;;10.90;99.90;;;;;;5053789;28;20618;-64
2022/10/19 09:32:05;;;;;;;15.90;7.47;;;11.00;99.90;;;;;;5054001;28;20301;-64
2022/10/19 09:34:36;;;;;;;15.77;7.13;;;11.10;99.90;;;;;;5053682;28;20259;-62
2022/10/19 09:37:04;;;;;;;17.70;5.70;;;11.10;99.90;;;;;;5053800;28;20229;-64
2022/10/19 09:39:31;;;;;;;12.73;4.83;;;11.10;99.90;;;;;;5053235;28;20226;-64
2022/10/19 09:42:00;;;;;;;10.27;4.10;;;11.20;99.90;;;;;;5053923;28;20255;-63
2022/10/19 09:44:27;;;;;;;7.37;2.93;;;11.20;99.90;;;;;;5053482;28;20308;-64
2022/10/19 09:47:02;;;;;;;6.97;2.50;;;11.30;99.90;;;;;;5053748;28;20210;-64
2022/10/19 09:49:40;;;;;;;7.77;2.23;;;11.50;99.90;;;;;;5053506;28;20227;-60
2022/10/19 09:52:24;;;;;;;9.10;2.40;;;11.50;99.90;;;;;;5053757;28;20209;-61
2022/10/19 09:54:58;;;;;;;4.40;1.80;;;11.50;99.90;;;;;;5053723;28;20292;-61
2022/10/19 09:57:25;;;;;;;6.20;2.10;;;11.60;99.90;;;;;;5053304;28;20229;-64
2022/10/19 09:59:52;;;;;;;10.00;1.80;;;11.60;99.90;;;;;;5053480;28;20308;-64
2022/10/19 10:02:21;;;;;;;3.60;1.73;;;11.70;99.90;;;;;;5053156;28;20299;-65
2022/10/19 10:04:55;;;;;;;3.93;2.17;;;11.70;99.90;;;;;;5053788;28;20230;-64
2022/10/19 10:07:29;;;;;;;6.63;1.90;;;11.70;99.90;;;;;;5051232;28;20254;-64
2022/10/19 10:09:56;;;;;;;5.97;1.60;;;11.80;99.90;;;;;;5044395;28;20229;-64
2022/10/19 10:12:23;;;;;;;2.80;1.60;;;11.90;99.90;;;;;;5051942;28;20267;-64
2022/10/19 10:14:51;;;;;;;5.23;1.77;;;12.10;99.90;;;;;;5053125;28;20210;-65
2022/10/19 10:17:20;;;;;;;7.50;1.43;;;12.20;99.90;;;;;;5052252;28;20227;-65
2022/10/19 10:20:04;;;;;;;4.77;1.37;;;12.30;99.90;;;;;;5054098;28;20275;-64
2022/10/19 10:22:34;;;;;;;5.07;1.43;;;12.40;99.90;;;;;;5053065;28;20213;-65
2022/10/19 10:25:02;;;;;;;3.40;1.40;;;12.50;99.90;;;;;;5054464;28;20209;-65
2022/10/19 10:27:31;;;;;;;2.47;1.30;;;12.50;99.90;;;;;;5052978;28;20201;-64
2022/10/19 10:29:58;;;;;;;3.53;1.40;;;12.50;99.90;;;;;;5053145;28;20240;-63
2022/10/19 10:32:27;;;;;;;7.03;1.50;;;12.50;99.90;;;;;;5052285;28;20206;-57
2022/10/19 10:35:01;;;;;;;3.80;1.33;;;12.60;99.90;;;;;;5052358;28;20213;-59
2022/10/19 10:37:34;;;;;;;2.87;1.13;;;12.70;99.90;;;;;;5052358;28;20232;-60
2022/10/19 10:40:04;;;;;;;5.57;1.20;;;12.70;99.90;;;;;;5050047;28;20225;-60
2022/10/19 10:42:34;;;;;;;6.03;1.57;;;12.80;99.90;;;;;;5052085;28;20210;-61
2022/10/19 10:45:02;;;;;;;3.33;1.63;;;12.90;99.90;;;;;;5051216;28;20213;-59
2022/10/19 10:47:30;;;;;;;2.50;1.40;;;12.90;99.90;;;;;;5052203;28;20210;-59
2022/10/19 10:50:00;;;;;;;5.47;1.33;;;12.80;99.90;;;;;;5052239;28;20279;-64
2022/10/19 10:52:29;;;;;;;4.27;1.70;;;12.70;99.90;;;;;;5051977;28;20233;-63
2022/10/19 10:55:14;;;;;;;4.27;1.50;;;12.90;99.90;;;;;;5052281;28;20668;-62
2022/10/19 10:57:44;;;;;;;5.57;1.43;;;13.10;99.90;;;;;;5051802;28;20228;-61
2022/10/19 11:00:15;;;;;;;5.23;1.70;;;13.20;99.90;;;;;;5052039;28;20635;-63
2022/10/19 11:02:47;;;;;;;8.67;1.80;;;13.30;99.90;;;;;;5051776;28;20210;-63
2022/10/19 11:05:19;;;;;;;2.23;1.37;;;13.50;99.90;;;;;;5052406;28;20209;-63
2022/10/19 11:07:48;;;;;;;3.13;1.63;;;13.40;94.40;;;;;;5051168;28;20202;-63
2022/10/19 11:10:24;;;;;;;5.73;2.00;;;13.60;99.90;;;;;;5051888;28;20230;-65
2022/10/19 11:13:01;;;;;;;5.93;1.60;;;13.60;99.90;;;;;;5051707;28;20240;-65
2022/10/19 11:15:33;;;;;;;3.83;1.73;;;13.60;99.90;;;;;;5051526;28;20216;-65
2022/10/19 11:18:11;;;;;;;2.20;1.60;;;13.60;99.70;;;;;;5051094;28;20233;-65
2022/10/19 11:20:43;;;;;;;3.80;2.00;;;13.70;99.90;;;;;;5051627;28;20221;-60
2022/10/19 11:23:16;;;;;;;7.87;1.90;;;13.60;99.90;;;;;;5051801;28;20213;-63
2022/10/19 11:25:57;;;;;;;5.83;1.70;;;13.50;96.90;;;;;;5051395;28;20259;-64
2022/10/19 11:28:48;;;;;;;6.37;1.97;;;13.50;99.90;;;;;;5051680;28;20208;-63
2022/10/19 11:31:19;;;;;;;4.50;1.30;;;13.50;99.90;;;;;;5051246;28;20213;-63
2022/10/19 11:33:55;;;;;;;4.33;1.77;;;13.60;99.90;;;;;;5051834;28;20212;-63
2022/10/19 11:36:36;;;;;;;5.87;1.90;;;13.70;99.90;;;;;;5050673;28;20233;-63
2022/10/19 11:39:26;;;;;;;4.57;1.70;;;13.80;99.90;;;;;;5051296;28;20584;-64
2022/10/19 11:42:01;;;;;;;5.37;1.83;;;13.80;99.90;;;;;;5050979;28;20221;-65
2022/10/19 11:44:44;;;;;;;3.47;2.30;;;13.90;99.90;;;;;;5051481;28;20208;-65
2022/10/19 11:47:28;;;;;;;3.27;1.70;;;14.00;99.90;;;;;;5050805;28;20209;-64
2022/10/19 11:50:09;;;;;;;8.53;2.53;;;14.00;99.90;;;;;;5051263;28;20225;-65
2022/10/19 11:52:45;;;;;;;5.40;1.60;;;14.00;90.20;;;;;;5050938;28;20205;-65
2022/10/19 11:55:31;;;;;;;5.73;1.70;;;14.00;99.90;;;;;;5051992;28;20734;-64
2022/10/19 11:58:07;;;;;;;4.17;1.40;;;13.90;62.90;;;;;;5050548;28;20279;-64
2022/10/19 12:00:39;;;;;;;5.23;1.43;;;13.80;76.10;;;;;;5051131;28;20240;-62
2022/10/19 12:03:37;;;;;;;5.13;1.80;;;13.80;89.30;;;;;;5050826;28;20202;-62
2022/10/19 12:06:10;;;;;;;5.40;1.70;;;13.80;95.50;;;;;;5050838;28;20217;-62
2022/10/19 12:08:55;;;;;;;4.40;1.50;;;13.90;99.90;;;;;;5050868;28;20243;-62
2022/10/19 12:11:35;;;;;;;4.83;1.20;;;13.90;84.40;;;;;;5051341;28;20561;-62
2022/10/19 12:14:06;;;;;;;2.17;1.13;;;14.00;98.60;;;;;;5050558;28;20205;-62
2022/10/19 12:16:37;;;;;;;8.63;1.73;;;14.10;67.10;;;;;;5050625;28;20205;-62
2022/10/19 12:19:06;;;;;;;6.03;2.67;;;14.10;57.10;;;;;;5046672;28;20221;-62
2022/10/19 12:21:38;;;;;;;7.13;3.23;;;14.20;70.40;;;;;;5046096;28;20263;-62
2022/10/19 12:24:14;;;;;;;2.60;1.30;;;14.10;80.60;;;;;;5051034;28;20202;-63
2022/10/19 12:26:42;;;;;;;7.37;1.70;;;14.10;56.70;;;;;;5050136;28;20258;-61
2022/10/19 12:29:14;;;;;;;6.47;1.90;;;14.20;49.20;;;;;;5050305;28;20229;-66
2022/10/19 12:31:42;;;;;;;5.33;1.50;;;14.30;41.00;;;;;;5051155;28;20241;-65
2022/10/19 12:34:20;;;;;;;3.87;1.30;;;14.30;13.10;;;;;;5054836;28;20217;-66
2022/10/19 12:36:54;;;;;;;4.83;1.37;;;14.30;1.00;;;;;;5054752;28;20198;-65
2022/10/19 12:39:25;;;;;;;5.30;1.47;;;14.40;22.80;;;;;;5054905;28;20746;-65
2022/10/19 12:42:00;;;;;;;6.83;1.10;;;14.40;16.70;;;;;;5054365;28;20275;-66
2022/10/19 12:45:13;;;;;;;3.57;1.53;;;14.60;57.50;;;;;;5054928;28;20204;-65
2022/10/19 12:48:23;;;;;;;5.13;1.57;;;14.70;24.10;;;;;;5047924;28;20205;-66
2022/10/19 12:51:23;;;;;;;7.00;1.50;;;14.80;32.90;;;;;;5054596;28;20605;-63
2022/10/19 12:53:50;;;;;;;5.33;1.53;;;14.90;13.40;;;;;;4990717;28;20580;-65
2022/10/19 12:56:21;;;;;;;6.37;1.53;;;14.70;1.00;;;;;;4992593;28;20211;-63
2022/10/19 12:58:54;;;;;;;5.43;1.50;;;14.60;1.00;;;;;;5021459;28;20230;-65